sensor_id;sensor_type;location;lat;lon;timestamp;temperature;humidity
51839;DHT22;37886;53.174;6.368;2023-08-06T00:00:23;14.40;99.90
51839;DHT22;37886;53.174;6.368;2023-08-06T00:02:49;14.60;99.90
51839;DHT22;37886;53.174;6.368;2023-08-06T00:05:15;14.70;99.90
51839;DHT22;37886;53.174;6.368;2023-08-06T00:07:44;14.70;99.90
51839;DHT22;37886;53.174;6.368;2023-08-06T00:10:10;14.50;99.90
51839;DHT22;37886;53.174;6.368;2023-08-06T00:12:36;14.70;99.90
51839;DHT22;37886;53.174;6.368;2023-08-06T00:15:02;14.60;99.90
51839;DHT22;37886;53.174;6.368;2023-08-06T00:17:28;14.70;99.90
51839;DHT22;37886;53.174;6.368;2023-08-06T00:19:54;14.60;99.90
51839;DHT22;37886;53.174;6.368;2023-08-06T00:22:19;14.60;99.90
51839;DHT22;37886;53.174;6.368;2023-08-06T00:24:45;14.80;99.90
51839;DHT22;37886;53.174;6.368;2023-08-06T00:27:11;14.60;99.90
51839;DHT22;37886;53.174;6.368;2023-08-06T00:29:36;14.70;99.90
51839;DHT22;37886;53.174;6.368;2023-08-06T00:32:02;14.50;99.90
51839;DHT22;37886;53.174;6.368;2023-08-06T00:34:28;14.70;99.90
51839;DHT22;37886;53.174;6.368;2023-08-06T00:36:54;14.60;99.90
51839;DHT22;37886;53.174;6.368;2023-08-06T00:39:20;14.60;99.90
51839;DHT22;37886;53.174;6.368;2023-08-06T00:41:46;14.50;99.90
51839;DHT22;37886;53.174;6.368;2023-08-06T00:44:11;14.70;99.90
51839;DHT22;37886;53.174;6.368;2023-08-06T00:46:37;14.70;99.90
51839;DHT22;37886;53.174;6.368;2023-08-06T00:49:04;14.60;99.90
51839;DHT22;37886;53.174;6.368;2023-08-06T00:51:30;14.70;99.90
51839;DHT22;37886;53.174;6.368;2023-08-06T00:53:57;14.70;99.90
51839;DHT22;37886;53.174;6.368;2023-08-06T00:56:24;14.70;99.90
51839;DHT22;37886;53.174;6.368;2023-08-06T00:58:50;14.70;99.90
51839;DHT22;37886;53.174;6.368;2023-08-06T01:01:15;14.70;99.90
51839;DHT22;37886;53.174;6.368;2023-08-06T01:03:41;14.70;99.90
51839;DHT22;37886;53.174;6.368;2023-08-06T01:06:07;14.60;99.90
51839;DHT22;37886;53.174;6.368;2023-08-06T01:08:48;14.60;99.90
51839;DHT22;37886;53.174;6.368;2023-08-06T01:11:44;14.60;99.90
51839;DHT22;37886;53.174;6.368;2023-08-06T01:14:18;14.50;99.90
51839;DHT22;37886;53.174;6.368;2023-08-06T01:16:49;14.60;99.90
51839;DHT22;37886;53.174;6.368;2023-08-06T01:19:19;14.60;99.90
51839;DHT22;37886;53.174;6.368;2023-08-06T01:21:45;14.60;99.90
51839;DHT22;37886;53.174;6.368;2023-08-06T01:24:11;14.50;99.90
51839;DHT22;37886;53.174;6.368;2023-08-06T01:26:54;14.40;99.90
51839;DHT22;37886;53.174;6.368;2023-08-06T01:29:30;14.40;99.90
51839;DHT22;37886;53.174;6.368;2023-08-06T01:31:58;14.50;99.90
51839;DHT22;37886;53.174;6.368;2023-08-06T01:34:27;14.40;99.90
51839;DHT22;37886;53.174;6.368;2023-08-06T01:36:53;14.60;99.90
51839;DHT22;37886;53.174;6.368;2023-08-06T01:39:19;14.50;99.90
51839;DHT22;37886;53.174;6.368;2023-08-06T01:41:47;14.50;99.90
51839;DHT22;37886;53.174;6.368;2023-08-06T01:44:14;14.50;99.90
51839;DHT22;37886;53.174;6.368;2023-08-06T01:46:39;14.50;99.90
51839;DHT22;37886;53.174;6.368;2023-08-06T01:49:05;14.60;99.90
51839;DHT22;37886;53.174;6.368;2023-08-06T01:51:31;14.60;99.90
51839;DHT22;37886;53.174;6.368;2023-08-06T01:53:57;14.70;99.90
51839;DHT22;37886;53.174;6.368;2023-08-06T01:56:23;14.60;99.90
51839;DHT22;37886;53.174;6.368;2023-08-06T01:58:48;14.70;99.90
51839;DHT22;37886;53.174;6.368;2023-08-06T02:01:14;14.50;99.90
51839;DHT22;37886;53.174;6.368;2023-08-06T02:03:40;14.60;99.90
51839;DHT22;37886;53.174;6.368;2023-08-06T02:06:05;14.70;99.90
51839;DHT22;37886;53.174;6.368;2023-08-06T02:08:31;14.60;99.90
51839;DHT22;37886;53.174;6.368;2023-08-06T02:10:57;14.60;99.90
51839;DHT22;37886;53.174;6.368;2023-08-06T02:13:23;14.60;99.90
51839;DHT22;37886;53.174;6.368;2023-08-06T02:15:49;14.50;99.90
51839;DHT22;37886;53.174;6.368;2023-08-06T02:18:15;14.70;99.90
51839;DHT22;37886;53.174;6.368;2023-08-06T02:20:42;14.50;99.90
51839;DHT22;37886;53.174;6.368;2023-08-06T02:23:08;14.70;99.90
51839;DHT22;37886;53.174;6.368;2023-08-06T02:25:34;14.50;99.90
51839;DHT22;37886;53.174;6.368;2023-08-06T02:28:00;14.60;99.90
51839;DHT22;37886;53.174;6.368;2023-08-06T02:30:26;14.60;99.90
51839;DHT22;37886;53.174;6.368;2023-08-06T02:32:51;14.60;99.90
51839;DHT22;37886;53.174;6.368;2023-08-06T02:35:17;14.50;99.90
51839;DHT22;37886;53.174;6.368;2023-08-06T02:37:43;14.50;99.90
51839;DHT22;37886;53.174;6.368;2023-08-06T02:40:09;14.70;99.90
51839;DHT22;37886;53.174;6.368;2023-08-06T02:42:34;14.50;99.90
51839;DHT22;37886;53.174;6.368;2023-08-06T02:45:00;14.60;99.90
51839;DHT22;37886;53.174;6.368;2023-08-06T02:47:26;14.50;99.90
51839;DHT22;37886;53.174;6.368;2023-08-06T02:49:52;14.60;99.90
51839;DHT22;37886;53.174;6.368;2023-08-06T02:52:18;14.50;99.90
51839;DHT22;37886;53.174;6.368;2023-08-06T02:54:43;14.60;99.90
51839;DHT22;37886;53.174;6.368;2023-08-06T02:57:09;14.60;99.90
51839;DHT22;37886;53.174;6.368;2023-08-06T02:59:35;14.70;99.90
51839;DHT22;37886;53.174;6.368;2023-08-06T03:02:01;14.40;99.90
51839;DHT22;37886;53.174;6.368;2023-08-06T03:04:26;14.60;99.90
51839;DHT22;37886;53.174;6.368;2023-08-06T03:06:52;14.50;99.90
51839;DHT22;37886;53.174;6.368;2023-08-06T03:09:18;14.40;99.90
51839;DHT22;37886;53.174;6.368;2023-08-06T03:11:44;14.40;99.90
51839;DHT22;37886;53.174;6.368;2023-08-06T03:14:10;14.50;99.90
51839;DHT22;37886;53.174;6.368;2023-08-06T03:16:35;14.60;99.90
51839;DHT22;37886;53.174;6.368;2023-08-06T03:19:01;14.40;99.90
51839;DHT22;37886;53.174;6.368;2023-08-06T03:21:27;14.50;99.90
51839;DHT22;37886;53.174;6.368;2023-08-06T03:23:53;14.40;99.90
51839;DHT22;37886;53.174;6.368;2023-08-06T03:26:18;14.40;99.90
51839;DHT22;37886;53.174;6.368;2023-08-06T03:28:44;14.50;99.90
51839;DHT22;37886;53.174;6.368;2023-08-06T03:31:10;14.70;99.90
51839;DHT22;37886;53.174;6.368;2023-08-06T03:33:36;14.70;99.90
51839;DHT22;37886;53.174;6.368;2023-08-06T03:36:02;14.70;99.90
51839;DHT22;37886;53.174;6.368;2023-08-06T03:38:27;14.80;99.90
51839;DHT22;37886;53.174;6.368;2023-08-06T03:40:53;14.70;99.90
51839;DHT22;37886;53.174;6.368;2023-08-06T03:43:19;14.70;99.90
51839;DHT22;37886;53.174;6.368;2023-08-06T03:45:45;14.60;99.90
51839;DHT22;37886;53.174;6.368;2023-08-06T03:48:10;14.60;99.90
51839;DHT22;37886;53.174;6.368;2023-08-06T03:50:36;14.70;99.90
51839;DHT22;37886;53.174;6.368;2023-08-06T03:53:02;14.70;99.90
51839;DHT22;37886;53.174;6.368;2023-08-06T03:55:28;14.70;99.90
51839;DHT22;37886;53.174;6.368;2023-08-06T03:57:53;14.50;99.90
51839;DHT22;37886;53.174;6.368;2023-08-06T04:00:19;14.50;99.90
51839;DHT22;37886;53.174;6.368;2023-08-06T04:02:45;14.60;99.90
51839;DHT22;37886;53.174;6.368;2023-08-06T04:05:11;14.60;99.90
51839;DHT22;37886;53.174;6.368;2023-08-06T04:07:37;14.50;99.90
51839;DHT22;37886;53.174;6.368;2023-08-06T04:10:04;14.50;99.90
51839;DHT22;37886;53.174;6.368;2023-08-06T04:12:30;14.60;99.90
51839;DHT22;37886;53.174;6.368;2023-08-06T04:15:01;14.50;99.90
51839;DHT22;37886;53.174;6.368;2023-08-06T04:17:26;14.70;99.90
51839;DHT22;37886;53.174;6.368;2023-08-06T04:19:53;14.50;99.90
51839;DHT22;37886;53.174;6.368;2023-08-06T04:22:20;14.70;99.90
51839;DHT22;37886;53.174;6.368;2023-08-06T04:24:46;14.80;99.90
51839;DHT22;37886;53.174;6.368;2023-08-06T04:27:12;14.60;99.90
51839;DHT22;37886;53.174;6.368;2023-08-06T04:29:38;14.70;99.90
51839;DHT22;37886;53.174;6.368;2023-08-06T04:32:07;14.60;99.90
51839;DHT22;37886;53.174;6.368;2023-08-06T04:34:33;14.50;99.90
51839;DHT22;37886;53.174;6.368;2023-08-06T04:37:00;14.70;99.90
51839;DHT22;37886;53.174;6.368;2023-08-06T04:39:26;14.70;99.90
51839;DHT22;37886;53.174;6.368;2023-08-06T04:41:52;14.70;99.90
51839;DHT22;37886;53.174;6.368;2023-08-06T04:44:17;15.00;99.90
51839;DHT22;37886;53.174;6.368;2023-08-06T04:46:43;14.70;99.90
51839;DHT22;37886;53.174;6.368;2023-08-06T04:49:09;15.00;99.90
51839;DHT22;37886;53.174;6.368;2023-08-06T04:51:35;15.10;99.90
51839;DHT22;37886;53.174;6.368;2023-08-06T04:54:01;15.10;99.90
51839;DHT22;37886;53.174;6.368;2023-08-06T04:56:27;14.80;99.90
51839;DHT22;37886;53.174;6.368;2023-08-06T04:58:52;15.20;99.90
51839;DHT22;37886;53.174;6.368;2023-08-06T05:01:18;14.90;99.90
51839;DHT22;37886;53.174;6.368;2023-08-06T05:03:44;15.30;99.90
51839;DHT22;37886;53.174;6.368;2023-08-06T05:06:10;15.10;99.90
51839;DHT22;37886;53.174;6.368;2023-08-06T05:08:36;15.40;99.90
51839;DHT22;37886;53.174;6.368;2023-08-06T05:11:02;15.40;99.90
51839;DHT22;37886;53.174;6.368;2023-08-06T05:13:28;15.60;99.90
51839;DHT22;37886;53.174;6.368;2023-08-06T05:15:54;15.70;99.90
51839;DHT22;37886;53.174;6.368;2023-08-06T05:18:20;15.50;99.90
51839;DHT22;37886;53.174;6.368;2023-08-06T05:20:46;15.70;99.90
51839;DHT22;37886;53.174;6.368;2023-08-06T05:23:11;15.70;99.90
51839;DHT22;37886;53.174;6.368;2023-08-06T05:25:38;16.10;99.90
51839;DHT22;37886;53.174;6.368;2023-08-06T05:28:04;15.80;99.90
51839;DHT22;37886;53.174;6.368;2023-08-06T05:30:29;16.00;99.90
51839;DHT22;37886;53.174;6.368;2023-08-06T05:32:55;16.00;99.90
51839;DHT22;37886;53.174;6.368;2023-08-06T05:35:22;16.10;99.90
51839;DHT22;37886;53.174;6.368;2023-08-06T05:37:48;16.20;99.90
51839;DHT22;37886;53.174;6.368;2023-08-06T05:40:14;16.30;99.90
51839;DHT22;37886;53.174;6.368;2023-08-06T05:42:40;16.20;99.90
51839;DHT22;37886;53.174;6.368;2023-08-06T05:45:07;16.10;99.90
51839;DHT22;37886;53.174;6.368;2023-08-06T05:47:33;15.90;99.90
51839;DHT22;37886;53.174;6.368;2023-08-06T05:49:59;15.70;99.90
51839;DHT22;37886;53.174;6.368;2023-08-06T05:52:24;15.80;99.90
51839;DHT22;37886;53.174;6.368;2023-08-06T05:54:50;15.80;99.90
51839;DHT22;37886;53.174;6.368;2023-08-06T05:57:16;15.80;99.90
51839;DHT22;37886;53.174;6.368;2023-08-06T05:59:43;15.80;99.90
51839;DHT22;37886;53.174;6.368;2023-08-06T06:02:08;15.80;99.90
51839;DHT22;37886;53.174;6.368;2023-08-06T06:04:34;15.80;99.90
51839;DHT22;37886;53.174;6.368;2023-08-06T06:07:00;15.50;99.90
51839;DHT22;37886;53.174;6.368;2023-08-06T06:09:26;15.80;99.90
51839;DHT22;37886;53.174;6.368;2023-08-06T06:11:52;15.80;99.90
51839;DHT22;37886;53.174;6.368;2023-08-06T06:14:18;16.00;99.90
51839;DHT22;37886;53.174;6.368;2023-08-06T06:16:44;16.00;99.90
51839;DHT22;37886;53.174;6.368;2023-08-06T06:19:11;15.90;99.90
51839;DHT22;37886;53.174;6.368;2023-08-06T06:21:36;16.00;99.90
51839;DHT22;37886;53.174;6.368;2023-08-06T06:24:04;16.00;99.90
51839;DHT22;37886;53.174;6.368;2023-08-06T06:26:30;16.20;99.90
51839;DHT22;37886;53.174;6.368;2023-08-06T06:28:56;16.20;99.90
51839;DHT22;37886;53.174;6.368;2023-08-06T06:31:21;16.30;99.90
51839;DHT22;37886;53.174;6.368;2023-08-06T06:33:47;16.50;99.90
51839;DHT22;37886;53.174;6.368;2023-08-06T06:36:13;16.60;99.90
51839;DHT22;37886;53.174;6.368;2023-08-06T06:38:39;16.70;99.90
51839;DHT22;37886;53.174;6.368;2023-08-06T06:41:05;16.60;99.90
51839;DHT22;37886;53.174;6.368;2023-08-06T06:43:31;16.70;99.90
51839;DHT22;37886;53.174;6.368;2023-08-06T06:45:57;16.80;99.90
51839;DHT22;37886;53.174;6.368;2023-08-06T06:48:25;16.90;99.90
51839;DHT22;37886;53.174;6.368;2023-08-06T06:50:51;16.80;99.90
51839;DHT22;37886;53.174;6.368;2023-08-06T06:53:17;16.80;99.90
51839;DHT22;37886;53.174;6.368;2023-08-06T06:55:42;16.80;99.90
51839;DHT22;37886;53.174;6.368;2023-08-06T06:58:08;16.90;99.90
51839;DHT22;37886;53.174;6.368;2023-08-06T07:00:36;17.00;99.90
51839;DHT22;37886;53.174;6.368;2023-08-06T07:03:02;17.00;99.90
51839;DHT22;37886;53.174;6.368;2023-08-06T07:05:28;17.20;99.90
51839;DHT22;37886;53.174;6.368;2023-08-06T07:07:54;17.20;99.90
51839;DHT22;37886;53.174;6.368;2023-08-06T07:10:20;17.30;99.90
51839;DHT22;37886;53.174;6.368;2023-08-06T07:12:45;17.60;99.90
51839;DHT22;37886;53.174;6.368;2023-08-06T07:15:11;17.60;99.90
51839;DHT22;37886;53.174;6.368;2023-08-06T07:17:37;17.70;99.90
51839;DHT22;37886;53.174;6.368;2023-08-06T07:20:03;17.80;99.90
51839;DHT22;37886;53.174;6.368;2023-08-06T07:22:29;17.90;99.90
51839;DHT22;37886;53.174;6.368;2023-08-06T07:24:55;18.10;99.90
51839;DHT22;37886;53.174;6.368;2023-08-06T07:27:21;18.00;99.90
51839;DHT22;37886;53.174;6.368;2023-08-06T07:29:47;18.10;99.90
51839;DHT22;37886;53.174;6.368;2023-08-06T07:32:13;18.10;99.90
51839;DHT22;37886;53.174;6.368;2023-08-06T07:34:39;18.10;99.90
51839;DHT22;37886;53.174;6.368;2023-08-06T07:37:05;18.10;99.90
51839;DHT22;37886;53.174;6.368;2023-08-06T07:39:31;18.20;99.90
51839;DHT22;37886;53.174;6.368;2023-08-06T07:41:57;18.40;99.90
51839;DHT22;37886;53.174;6.368;2023-08-06T07:44:23;18.50;99.90
51839;DHT22;37886;53.174;6.368;2023-08-06T07:46:49;18.50;99.90
51839;DHT22;37886;53.174;6.368;2023-08-06T07:49:15;18.50;99.90
51839;DHT22;37886;53.174;6.368;2023-08-06T07:51:41;18.80;99.90
51839;DHT22;37886;53.174;6.368;2023-08-06T07:54:07;18.90;99.90
51839;DHT22;37886;53.174;6.368;2023-08-06T07:56:33;19.00;99.90
51839;DHT22;37886;53.174;6.368;2023-08-06T07:58:58;19.30;99.90
51839;DHT22;37886;53.174;6.368;2023-08-06T08:01:24;19.50;99.90
51839;DHT22;37886;53.174;6.368;2023-08-06T08:03:50;19.60;99.90
51839;DHT22;37886;53.174;6.368;2023-08-06T08:06:16;19.30;99.90
51839;DHT22;37886;53.174;6.368;2023-08-06T08:08:42;19.10;99.90
51839;DHT22;37886;53.174;6.368;2023-08-06T08:11:08;19.00;99.90
51839;DHT22;37886;53.174;6.368;2023-08-06T08:13:34;19.00;99.90
51839;DHT22;37886;53.174;6.368;2023-08-06T08:16:00;19.00;99.90
51839;DHT22;37886;53.174;6.368;2023-08-06T08:18:26;19.00;99.90
51839;DHT22;37886;53.174;6.368;2023-08-06T08:20:52;19.20;99.90
51839;DHT22;37886;53.174;6.368;2023-08-06T08:23:17;19.50;99.90
51839;DHT22;37886;53.174;6.368;2023-08-06T08:25:43;19.60;99.90
51839;DHT22;37886;53.174;6.368;2023-08-06T08:28:09;19.40;99.90
51839;DHT22;37886;53.174;6.368;2023-08-06T08:30:35;19.30;99.90
51839;DHT22;37886;53.174;6.368;2023-08-06T08:33:00;19.30;99.90
51839;DHT22;37886;53.174;6.368;2023-08-06T08:35:26;19.40;99.90
51839;DHT22;37886;53.174;6.368;2023-08-06T08:37:52;19.50;99.90
51839;DHT22;37886;53.174;6.368;2023-08-06T08:40:18;19.50;99.90
51839;DHT22;37886;53.174;6.368;2023-08-06T08:42:44;19.60;99.90
51839;DHT22;37886;53.174;6.368;2023-08-06T08:45:14;19.80;99.90
51839;DHT22;37886;53.174;6.368;2023-08-06T08:47:41;19.90;99.90
51839;DHT22;37886;53.174;6.368;2023-08-06T08:50:09;20.00;99.90
51839;DHT22;37886;53.174;6.368;2023-08-06T08:52:36;20.00;99.90
51839;DHT22;37886;53.174;6.368;2023-08-06T08:55:04;20.10;99.90
51839;DHT22;37886;53.174;6.368;2023-08-06T08:57:30;20.30;99.90
51839;DHT22;37886;53.174;6.368;2023-08-06T08:59:56;20.40;99.90
51839;DHT22;37886;53.174;6.368;2023-08-06T09:02:24;20.50;99.90
51839;DHT22;37886;53.174;6.368;2023-08-06T09:04:51;20.60;99.90
51839;DHT22;37886;53.174;6.368;2023-08-06T09:07:19;20.40;99.90
51839;DHT22;37886;53.174;6.368;2023-08-06T09:09:49;20.40;99.90
51839;DHT22;37886;53.174;6.368;2023-08-06T09:12:16;20.60;99.90
51839;DHT22;37886;53.174;6.368;2023-08-06T09:14:42;20.60;99.90
51839;DHT22;37886;53.174;6.368;2023-08-06T09:17:08;20.40;99.90
51839;DHT22;37886;53.174;6.368;2023-08-06T09:19:36;20.40;99.90
51839;DHT22;37886;53.174;6.368;2023-08-06T09:22:02;20.50;99.90
51839;DHT22;37886;53.174;6.368;2023-08-06T09:24:28;20.50;99.90
51839;DHT22;37886;53.174;6.368;2023-08-06T09:26:54;20.70;99.90
51839;DHT22;37886;53.174;6.368;2023-08-06T09:29:20;20.90;99.90
51839;DHT22;37886;53.174;6.368;2023-08-06T09:31:50;20.90;99.90
51839;DHT22;37886;53.174;6.368;2023-08-06T09:34:22;21.10;99.90
51839;DHT22;37886;53.174;6.368;2023-08-06T09:36:52;21.20;99.90
51839;DHT22;37886;53.174;6.368;2023-08-06T09:39:27;21.30;99.90
51839;DHT22;37886;53.174;6.368;2023-08-06T09:41:56;21.50;99.90
51839;DHT22;37886;53.174;6.368;2023-08-06T09:44:24;21.50;99.90
51839;DHT22;37886;53.174;6.368;2023-08-06T09:46:58;21.70;99.90
51839;DHT22;37886;53.174;6.368;2023-08-06T09:49:40;21.90;99.90
51839;DHT22;37886;53.174;6.368;2023-08-06T09:52:11;22.00;99.90
51839;DHT22;37886;53.174;6.368;2023-08-06T09:54:37;21.90;99.90
51839;DHT22;37886;53.174;6.368;2023-08-06T09:57:04;21.80;99.90
51839;DHT22;37886;53.174;6.368;2023-08-06T09:59:31;22.00;99.90
51839;DHT22;37886;53.174;6.368;2023-08-06T10:01:58;22.00;99.90
51839;DHT22;37886;53.174;6.368;2023-08-06T10:04:24;21.90;99.90
51839;DHT22;37886;53.174;6.368;2023-08-06T10:06:50;21.80;99.90
51839;DHT22;37886;53.174;6.368;2023-08-06T10:09:16;21.90;99.90
51839;DHT22;37886;53.174;6.368;2023-08-06T10:11:44;21.70;99.90
51839;DHT22;37886;53.174;6.368;2023-08-06T10:14:18;21.70;99.90
51839;DHT22;37886;53.174;6.368;2023-08-06T10:16:45;21.80;99.90
51839;DHT22;37886;53.174;6.368;2023-08-06T10:19:13;21.90;99.90
51839;DHT22;37886;53.174;6.368;2023-08-06T10:21:39;22.00;99.90
51839;DHT22;37886;53.174;6.368;2023-08-06T10:24:08;22.00;99.90
51839;DHT22;37886;53.174;6.368;2023-08-06T10:26:37;22.00;99.90
51839;DHT22;37886;53.174;6.368;2023-08-06T10:29:37;22.10;99.90
51839;DHT22;37886;53.174;6.368;2023-08-06T10:32:04;22.20;99.90
51839;DHT22;37886;53.174;6.368;2023-08-06T10:34:58;22.00;99.90
51839;DHT22;37886;53.174;6.368;2023-08-06T10:37:36;22.00;99.90
51839;DHT22;37886;53.174;6.368;2023-08-06T10:40:03;21.90;99.90
51839;DHT22;37886;53.174;6.368;2023-08-06T10:42:31;22.20;99.90
51839;DHT22;37886;53.174;6.368;2023-08-06T10:45:16;22.40;99.90
51839;DHT22;37886;53.174;6.368;2023-08-06T10:47:43;22.90;99.90
51839;DHT22;37886;53.174;6.368;2023-08-06T10:50:12;22.60;99.90
51839;DHT22;37886;53.174;6.368;2023-08-06T10:52:39;22.60;99.90
51839;DHT22;37886;53.174;6.368;2023-08-06T10:55:05;22.80;99.90
51839;DHT22;37886;53.174;6.368;2023-08-06T10:57:31;22.50;99.90
51839;DHT22;37886;53.174;6.368;2023-08-06T10:59:57;22.60;99.90
51839;DHT22;37886;53.174;6.368;2023-08-06T11:02:23;22.40;99.90
51839;DHT22;37886;53.174;6.368;2023-08-06T11:04:49;22.30;99.90
51839;DHT22;37886;53.174;6.368;2023-08-06T11:07:14;22.40;99.90
51839;DHT22;37886;53.174;6.368;2023-08-06T11:09:40;22.30;99.90
51839;DHT22;37886;53.174;6.368;2023-08-06T11:12:12;22.40;99.90
51839;DHT22;37886;53.174;6.368;2023-08-06T11:14:50;22.40;99.90
51839;DHT22;37886;53.174;6.368;2023-08-06T11:17:15;22.80;99.90
51839;DHT22;37886;53.174;6.368;2023-08-06T11:19:41;22.70;99.90
51839;DHT22;37886;53.174;6.368;2023-08-06T11:22:07;23.00;99.90
51839;DHT22;37886;53.174;6.368;2023-08-06T11:24:33;23.10;99.90
51839;DHT22;37886;53.174;6.368;2023-08-06T11:26:58;23.20;99.90
51839;DHT22;37886;53.174;6.368;2023-08-06T11:29:24;23.00;99.90
51839;DHT22;37886;53.174;6.368;2023-08-06T11:31:50;22.80;99.90
51839;DHT22;37886;53.174;6.368;2023-08-06T11:34:15;22.90;99.90
51839;DHT22;37886;53.174;6.368;2023-08-06T11:36:42;23.10;99.90
51839;DHT22;37886;53.174;6.368;2023-08-06T11:39:09;23.30;99.90
51839;DHT22;37886;53.174;6.368;2023-08-06T11:41:36;23.10;99.90
51839;DHT22;37886;53.174;6.368;2023-08-06T11:44:03;23.00;99.90
51839;DHT22;37886;53.174;6.368;2023-08-06T11:46:29;22.50;99.90
51839;DHT22;37886;53.174;6.368;2023-08-06T11:49:14;22.50;99.90
51839;DHT22;37886;53.174;6.368;2023-08-06T11:51:40;22.70;99.90
51839;DHT22;37886;53.174;6.368;2023-08-06T11:54:06;22.80;99.90
51839;DHT22;37886;53.174;6.368;2023-08-06T11:56:32;22.90;99.90
51839;DHT22;37886;53.174;6.368;2023-08-06T11:58:58;23.40;99.90
51839;DHT22;37886;53.174;6.368;2023-08-06T12:01:25;23.80;99.90
51839;DHT22;37886;53.174;6.368;2023-08-06T12:03:51;23.90;99.90
51839;DHT22;37886;53.174;6.368;2023-08-06T12:06:16;23.70;99.90
51839;DHT22;37886;53.174;6.368;2023-08-06T12:08:42;23.40;99.90
51839;DHT22;37886;53.174;6.368;2023-08-06T12:11:08;23.10;99.90
51839;DHT22;37886;53.174;6.368;2023-08-06T12:13:34;22.70;99.90
51839;DHT22;37886;53.174;6.368;2023-08-06T12:16:00;22.60;99.90
51839;DHT22;37886;53.174;6.368;2023-08-06T12:18:25;22.90;99.90
51839;DHT22;37886;53.174;6.368;2023-08-06T12:20:51;23.00;99.90
51839;DHT22;37886;53.174;6.368;2023-08-06T12:23:17;22.90;99.90
51839;DHT22;37886;53.174;6.368;2023-08-06T12:25:43;23.00;99.90
51839;DHT22;37886;53.174;6.368;2023-08-06T12:28:10;22.80;99.90
51839;DHT22;37886;53.174;6.368;2023-08-06T12:30:36;22.30;99.90
51839;DHT22;37886;53.174;6.368;2023-08-06T12:33:02;22.30;99.90
51839;DHT22;37886;53.174;6.368;2023-08-06T12:35:27;22.20;99.90
51839;DHT22;37886;53.174;6.368;2023-08-06T12:37:53;22.40;99.90
51839;DHT22;37886;53.174;6.368;2023-08-06T12:40:20;22.50;99.90
51839;DHT22;37886;53.174;6.368;2023-08-06T12:42:46;22.70;99.90
51839;DHT22;37886;53.174;6.368;2023-08-06T12:45:12;23.30;99.90
51839;DHT22;37886;53.174;6.368;2023-08-06T12:47:37;23.60;99.90
51839;DHT22;37886;53.174;6.368;2023-08-06T12:50:03;23.80;99.90
51839;DHT22;37886;53.174;6.368;2023-08-06T12:52:29;24.70;99.90
51839;DHT22;37886;53.174;6.368;2023-08-06T12:54:55;25.30;99.90
51839;DHT22;37886;53.174;6.368;2023-08-06T12:57:21;25.70;99.90
51839;DHT22;37886;53.174;6.368;2023-08-06T12:59:46;26.10;99.90
51839;DHT22;37886;53.174;6.368;2023-08-06T13:02:13;25.90;99.90
51839;DHT22;37886;53.174;6.368;2023-08-06T13:04:39;25.40;99.90
51839;DHT22;37886;53.174;6.368;2023-08-06T13:07:05;24.90;99.90
51839;DHT22;37886;53.174;6.368;2023-08-06T13:09:32;24.90;99.90
51839;DHT22;37886;53.174;6.368;2023-08-06T13:11:58;25.20;99.90
51839;DHT22;37886;53.174;6.368;2023-08-06T13:14:25;25.20;99.90
51839;DHT22;37886;53.174;6.368;2023-08-06T13:16:51;25.10;99.90
51839;DHT22;37886;53.174;6.368;2023-08-06T13:19:17;25.70;99.90
51839;DHT22;37886;53.174;6.368;2023-08-06T13:24:11;24.50;99.90
51839;DHT22;37886;53.174;6.368;2023-08-06T13:26:37;24.50;99.90
51839;DHT22;37886;53.174;6.368;2023-08-06T13:29:03;23.90;99.90
51839;DHT22;37886;53.174;6.368;2023-08-06T13:31:28;23.90;99.90
51839;DHT22;37886;53.174;6.368;2023-08-06T13:33:55;23.70;99.90
51839;DHT22;37886;53.174;6.368;2023-08-06T13:36:23;24.00;99.90
51839;DHT22;37886;53.174;6.368;2023-08-06T13:38:49;24.10;99.90
51839;DHT22;37886;53.174;6.368;2023-08-06T13:41:16;24.60;99.90
51839;DHT22;37886;53.174;6.368;2023-08-06T13:43:42;24.70;99.90
51839;DHT22;37886;53.174;6.368;2023-08-06T13:46:08;25.20;99.90
51839;DHT22;37886;53.174;6.368;2023-08-06T13:48:37;25.50;99.90
51839;DHT22;37886;53.174;6.368;2023-08-06T13:51:03;25.60;99.90
51839;DHT22;37886;53.174;6.368;2023-08-06T13:53:29;25.80;99.90
51839;DHT22;37886;53.174;6.368;2023-08-06T13:55:56;25.30;99.90
51839;DHT22;37886;53.174;6.368;2023-08-06T13:58:24;25.30;99.90
51839;DHT22;37886;53.174;6.368;2023-08-06T14:00:52;25.20;99.90
51839;DHT22;37886;53.174;6.368;2023-08-06T14:03:18;24.90;99.90
51839;DHT22;37886;53.174;6.368;2023-08-06T14:05:44;25.00;99.90
51839;DHT22;37886;53.174;6.368;2023-08-06T14:08:10;25.00;99.90
51839;DHT22;37886;53.174;6.368;2023-08-06T14:10:36;24.90;99.90
51839;DHT22;37886;53.174;6.368;2023-08-06T14:13:01;25.40;99.90
51839;DHT22;37886;53.174;6.368;2023-08-06T14:15:27;25.50;99.90
51839;DHT22;37886;53.174;6.368;2023-08-06T14:17:53;26.40;99.90
51839;DHT22;37886;53.174;6.368;2023-08-06T14:20:19;25.60;99.90
51839;DHT22;37886;53.174;6.368;2023-08-06T14:22:44;24.80;99.90
51839;DHT22;37886;53.174;6.368;2023-08-06T14:25:10;24.90;99.90
51839;DHT22;37886;53.174;6.368;2023-08-06T14:27:36;24.80;99.90
51839;DHT22;37886;53.174;6.368;2023-08-06T14:30:07;25.10;99.90
51839;DHT22;37886;53.174;6.368;2023-08-06T14:32:33;24.90;99.90
51839;DHT22;37886;53.174;6.368;2023-08-06T14:35:00;25.40;99.90
51839;DHT22;37886;53.174;6.368;2023-08-06T14:37:26;26.00;99.90
51839;DHT22;37886;53.174;6.368;2023-08-06T14:39:51;25.20;99.90
51839;DHT22;37886;53.174;6.368;2023-08-06T14:42:17;25.20;99.90
51839;DHT22;37886;53.174;6.368;2023-08-06T14:44:43;24.90;99.90
51839;DHT22;37886;53.174;6.368;2023-08-06T14:47:09;25.40;99.90
51839;DHT22;37886;53.174;6.368;2023-08-06T14:49:35;24.70;99.90
51839;DHT22;37886;53.174;6.368;2023-08-06T14:52:00;24.00;99.90
51839;DHT22;37886;53.174;6.368;2023-08-06T14:54:27;24.80;99.90
51839;DHT22;37886;53.174;6.368;2023-08-06T14:56:53;25.20;99.90
51839;DHT22;37886;53.174;6.368;2023-08-06T14:59:19;24.70;99.90
51839;DHT22;37886;53.174;6.368;2023-08-06T15:01:45;25.50;99.90
51839;DHT22;37886;53.174;6.368;2023-08-06T15:04:10;25.80;99.90
51839;DHT22;37886;53.174;6.368;2023-08-06T15:06:36;26.00;99.90
51839;DHT22;37886;53.174;6.368;2023-08-06T15:09:02;26.90;99.90
51839;DHT22;37886;53.174;6.368;2023-08-06T15:11:28;26.70;99.90
51839;DHT22;37886;53.174;6.368;2023-08-06T15:13:53;26.40;99.20
51839;DHT22;37886;53.174;6.368;2023-08-06T15:16:19;26.10;99.90
51839;DHT22;37886;53.174;6.368;2023-08-06T15:18:45;26.60;99.90
51839;DHT22;37886;53.174;6.368;2023-08-06T15:21:11;26.10;99.70
51839;DHT22;37886;53.174;6.368;2023-08-06T15:23:37;25.60;99.90
51839;DHT22;37886;53.174;6.368;2023-08-06T15:26:03;26.30;99.90
51839;DHT22;37886;53.174;6.368;2023-08-06T15:28:29;26.80;99.90